createdAt,value
2018-06-01T00:01:37.851Z,17.96
2018-06-01T00:04:04.190Z,18.01
2018-06-01T00:06:30.511Z,17.91
2018-06-01T00:08:56.886Z,17.93
2018-06-01T00:11:23.226Z,18.09
2018-06-01T00:13:50.321Z,18.11
2018-06-01T00:16:16.659Z,18.18
2018-06-01T00:18:43.043Z,18.18
2018-06-01T00:21:09.383Z,18.12
2018-06-01T00:23:35.740Z,17.97
2018-06-01T00:26:02.235Z,18.14
2018-06-01T00:28:29.326Z,17.99
2018-06-01T00:30:55.673Z,18.08
2018-06-01T00:33:22.036Z,18.14
2018-06-01T00:35:49.132Z,18.18
2018-06-01T00:38:15.485Z,18.16
2018-06-01T00:40:41.802Z,18.13
2018-06-01T00:43:08.150Z,18.16
2018-06-01T00:45:34.545Z,18.04
2018-06-01T00:48:00.880Z,18.03
2018-06-01T00:50:27.289Z,17.94
2018-06-01T00:52:53.604Z,17.89
2018-06-01T00:55:24.705Z,17.88
2018-06-01T00:57:51.065Z,17.79
2018-06-01T01:00:18.185Z,17.80
2018-06-01T01:02:44.538Z,17.80
2018-06-01T01:05:11.641Z,17.86
2018-06-01T01:07:38.738Z,17.88
2018-06-01T01:10:05.890Z,17.91
2018-06-01T01:12:32.235Z,17.91
2018-06-01T01:14:58.603Z,18.01
2018-06-01T01:17:25.004Z,17.77
2018-06-01T01:19:51.397Z,17.71
2018-06-01T01:22:17.763Z,17.86
2018-06-01T01:24:44.091Z,17.67
2018-06-01T01:27:10.462Z,17.63
2018-06-01T01:29:36.833Z,17.59
2018-06-01T01:32:04.082Z,17.51
2018-06-01T01:34:31.174Z,17.56
2018-06-01T01:36:57.494Z,17.72
2018-06-01T01:39:23.953Z,17.57
2018-06-01T01:41:50.371Z,17.55
2018-06-01T01:44:16.684Z,17.52
2018-06-01T01:46:43.048Z,17.64
2018-06-01T01:49:09.375Z,17.61
2018-06-01T01:51:35.750Z,17.73
2018-06-01T01:54:02.135Z,17.89
2018-06-01T01:56:28.470Z,17.75
2018-06-01T01:58:54.837Z,17.73
2018-06-01T02:01:21.921Z,17.59
2018-06-01T02:03:48.280Z,17.55
2018-06-01T02:06:14.601Z,17.65
2018-06-01T02:08:41.654Z,17.74
2018-06-01T02:11:07.979Z,17.73
2018-06-01T02:13:34.289Z,17.79
2018-06-01T02:16:00.637Z,17.80
2018-06-01T02:18:26.970Z,17.81
2018-06-01T02:20:54.071Z,17.90
2018-06-01T02:23:20.532Z,17.88
2018-06-01T02:25:46.953Z,17.90
2018-06-01T02:28:13.306Z,17.81
2018-06-01T02:30:39.721Z,17.99
2018-06-01T02:33:07.077Z,17.93
2018-06-01T02:35:33.425Z,18.00
2018-06-01T02:37:59.714Z,17.96
2018-06-01T02:40:26.127Z,18.00
2018-06-01T02:42:52.471Z,17.94
2018-06-01T02:45:18.838Z,17.94
2018-06-01T02:47:45.902Z,17.96
2018-06-01T02:50:12.571Z,18.03
2018-06-01T02:52:38.915Z,17.99
2018-06-01T02:55:05.286Z,17.99
2018-06-01T02:57:31.682Z,18.04
2018-06-01T02:59:58.036Z,18.04
2018-06-01T03:02:24.562Z,18.01
2018-06-01T03:04:50.934Z,18.05
2018-06-01T03:07:17.352Z,18.03
2018-06-01T03:09:46.419Z,17.88
2018-06-01T03:12:12.828Z,17.92
2018-06-01T03:14:39.222Z,17.91
2018-06-01T03:17:05.543Z,17.95
2018-06-01T03:19:31.906Z,18.04
2018-06-01T03:21:58.298Z,17.95
2018-06-01T03:24:24.672Z,17.87
2018-06-01T03:26:51.857Z,17.94
2018-06-01T03:29:18.258Z,17.83
2018-06-01T03:31:45.136Z,17.80
2018-06-01T03:34:11.533Z,17.74
2018-06-01T03:36:37.861Z,17.92
2018-06-01T03:39:05.045Z,17.79
2018-06-01T03:41:31.400Z,17.82
2018-06-01T03:43:57.794Z,17.87
2018-06-01T03:46:24.130Z,17.79
2018-06-01T03:48:50.623Z,17.77
2018-06-01T03:51:17.236Z,17.75
2018-06-01T03:53:43.583Z,17.78
2018-06-01T03:56:10.674Z,17.78
2018-06-01T03:58:37.018Z,17.83
2018-06-01T04:01:03.398Z,17.66
2018-06-01T04:03:29.972Z,17.71
2018-06-01T04:05:56.334Z,17.91
2018-06-01T04:08:22.692Z,17.91
2018-06-01T04:10:49.846Z,17.83
2018-06-01T04:13:16.218Z,17.87
2018-06-01T04:15:42.555Z,17.82
2018-06-01T04:18:08.939Z,17.82
2018-06-01T04:20:35.305Z,17.81
2018-06-01T04:23:01.662Z,17.81
2018-06-01T04:25:28.006Z,17.82
2018-06-01T04:27:55.116Z,17.83
2018-06-01T04:30:21.580Z,17.88
2018-06-01T04:32:48.082Z,17.92
2018-06-01T04:35:14.645Z,17.88
2018-06-01T04:37:40.990Z,17.97
2018-06-01T04:40:07.410Z,18.00
2018-06-01T04:42:33.793Z,18.07
2018-06-01T04:45:00.246Z,18.06
2018-06-01T04:47:26.588Z,18.09
2018-06-01T04:49:52.919Z,18.03
2018-06-01T04:52:19.235Z,18.18
2018-06-01T04:54:45.594Z,18.23
2018-06-01T04:57:11.966Z,18.23
2018-06-01T04:59:38.328Z,18.20
2018-06-01T05:02:04.722Z,18.26
2018-06-01T05:04:31.070Z,18.18
2018-06-01T05:06:57.450Z,18.39
2018-06-01T05:09:23.757Z,18.30
2018-06-01T05:11:50.081Z,18.30
2018-06-01T05:14:16.450Z,18.31
2018-06-01T05:16:42.864Z,18.33
2018-06-01T05:19:09.255Z,18.36
2018-06-01T05:21:35.590Z,18.37
2018-06-01T05:24:01.928Z,18.43
2018-06-01T05:26:28.260Z,18.53
2018-06-01T05:28:55.201Z,18.66
2018-06-01T05:31:21.509Z,18.77
2018-06-01T05:33:47.972Z,18.82
2018-06-01T05:36:14.281Z,19.01
2018-06-01T05:38:40.624Z,18.99
2018-06-01T05:41:07.024Z,18.85
2018-06-01T05:43:33.411Z,18.90
2018-06-01T05:45:59.919Z,18.98
2018-06-01T05:48:26.654Z,19.00
2018-06-01T05:50:53.068Z,19.09
2018-06-01T05:53:19.769Z,19.07
2018-06-01T05:55:46.207Z,19.04
2018-06-01T05:58:12.871Z,19.06
2018-06-01T06:00:39.236Z,19.16
2018-06-01T06:03:05.773Z,19.41
2018-06-01T06:05:32.114Z,19.40
2018-06-01T06:07:58.537Z,19.38
2018-06-01T06:10:24.905Z,19.52
2018-06-01T06:12:51.275Z,19.77
2018-06-01T06:15:17.612Z,19.68
2018-06-01T06:17:43.990Z,19.93
2018-06-01T06:20:10.376Z,20.08
2018-06-01T06:22:36.873Z,20.72
2018-06-01T06:25:04.114Z,20.93
2018-06-01T06:27:30.467Z,20.87
2018-06-01T06:29:56.899Z,20.54
2018-06-01T06:32:23.251Z,20.47
2018-06-01T06:34:49.650Z,20.20
2018-06-01T06:37:16.482Z,20.38
2018-06-01T06:39:43.887Z,21.24
2018-06-01T06:42:10.615Z,21.33
2018-06-01T06:44:36.946Z,20.86
2018-06-01T06:47:03.338Z,20.99
2018-06-01T06:49:30.493Z,20.96
2018-06-01T06:51:57.545Z,21.24
2018-06-01T06:54:23.897Z,21.08
2018-06-01T06:56:50.251Z,20.95
2018-06-01T06:59:16.664Z,20.73
2018-06-01T07:01:43.046Z,20.33
2018-06-01T07:04:09.426Z,20.48
2018-06-01T07:06:35.875Z,20.52
2018-06-01T07:09:03.078Z,20.51
2018-06-01T07:11:29.535Z,20.14
2018-06-01T07:13:55.872Z,20.16
2018-06-01T07:16:22.235Z,20.27
2018-06-01T07:18:48.645Z,20.45
2018-06-01T07:21:15.083Z,20.40
2018-06-01T07:23:41.477Z,20.45
2018-06-01T07:26:07.935Z,20.79
2018-06-01T07:28:34.493Z,20.91
2018-06-01T07:31:00.991Z,20.85
2018-06-01T07:33:27.525Z,20.93
2018-06-01T07:35:54.058Z,21.03
2018-06-01T07:38:20.518Z,21.04
2018-06-01T07:40:46.990Z,21.29
2018-06-01T07:43:13.386Z,21.37
2018-06-01T07:45:39.766Z,21.30
2018-06-01T07:48:06.971Z,21.40
2018-06-01T07:50:33.390Z,21.44
2018-06-01T07:52:59.767Z,21.34
2018-06-01T07:55:26.218Z,21.50
2018-06-01T07:57:52.587Z,21.61
2018-06-01T08:00:19.011Z,21.55
2018-06-01T08:02:45.381Z,21.63
2018-06-01T08:05:11.683Z,21.79
2018-06-01T08:07:38.064Z,21.87
2018-06-01T08:10:04.545Z,22.07
2018-06-01T08:12:30.857Z,22.09
2018-06-01T08:14:57.446Z,21.70
2018-06-01T08:17:23.815Z,21.75
2018-06-01T08:19:50.319Z,21.89
2018-06-01T08:22:16.790Z,22.09
2018-06-01T08:24:43.138Z,22.28
2018-06-01T08:27:09.517Z,22.00
2018-06-01T08:29:35.951Z,21.82
2018-06-01T08:32:02.367Z,22.02
2018-06-01T08:34:29.484Z,22.21
2018-06-01T08:36:55.951Z,22.19
2018-06-01T08:39:23.135Z,22.26
2018-06-01T08:41:49.547Z,22.34
2018-06-01T08:44:16.156Z,22.78
2018-06-01T08:46:42.698Z,22.71
2018-06-01T08:49:09.267Z,22.86
2018-06-01T08:51:35.893Z,22.89
2018-06-01T08:54:02.273Z,22.97
2018-06-01T08:56:28.663Z,22.69
2018-06-01T08:58:55.035Z,22.64
2018-06-01T09:01:21.464Z,23.04
2018-06-01T09:03:47.895Z,23.30
2018-06-01T09:06:14.335Z,23.82
2018-06-01T09:08:40.652Z,24.28
2018-06-01T09:11:07.132Z,24.28
2018-06-01T09:13:33.502Z,24.05
2018-06-01T09:16:00.507Z,23.69
2018-06-01T09:18:27.037Z,23.39
2018-06-01T09:20:54.280Z,23.89
2018-06-01T09:23:20.681Z,23.97
2018-06-01T09:25:47.079Z,24.31
2018-06-01T09:28:13.732Z,24.19
2018-06-01T09:30:40.769Z,23.81
2018-06-01T09:33:07.188Z,23.61
2018-06-01T09:35:33.523Z,23.70
2018-06-01T09:37:59.871Z,23.69
2018-06-01T09:40:26.246Z,23.48
2018-06-01T09:42:52.706Z,23.38
2018-06-01T09:45:19.866Z,23.54
2018-06-01T09:47:46.223Z,23.93
2018-06-01T09:50:12.625Z,24.36
2018-06-01T09:52:39.012Z,24.25
2018-06-01T09:55:05.437Z,24.62
2018-06-01T09:57:31.831Z,24.72
2018-06-01T09:59:58.202Z,24.47
2018-06-01T10:02:24.618Z,24.02
2018-06-01T10:04:51.025Z,23.98
2018-06-01T10:07:17.548Z,23.82
2018-06-01T10:09:43.988Z,24.61
2018-06-01T10:12:10.323Z,24.42
2018-06-01T10:14:36.723Z,24.45
2018-06-01T10:17:03.168Z,24.15
2018-06-01T10:19:29.604Z,24.53
2018-06-01T10:21:56.042Z,24.45
2018-06-01T10:24:22.499Z,24.74
2018-06-01T10:26:49.019Z,24.39
2018-06-01T10:29:15.458Z,24.30
2018-06-01T10:31:41.860Z,24.29
2018-06-01T10:34:08.224Z,24.36
2018-06-01T10:36:34.595Z,24.23
2018-06-01T10:39:01.074Z,24.59
2018-06-01T10:41:27.572Z,24.60
2018-06-01T10:43:53.957Z,24.86
2018-06-01T10:46:20.476Z,24.45
2018-06-01T10:48:47.693Z,24.35
2018-06-01T10:51:14.059Z,24.49
2018-06-01T10:53:40.459Z,25.31
2018-06-01T10:56:06.968Z,25.53
2018-06-01T10:58:34.098Z,25.59
2018-06-01T11:01:00.606Z,26.24
2018-06-01T11:03:26.988Z,26.00
2018-06-01T11:05:54.153Z,26.07
2018-06-01T11:08:21.084Z,25.45
2018-06-01T11:10:48.279Z,25.75
2018-06-01T11:13:14.727Z,25.48
2018-06-01T11:15:41.098Z,25.72
2018-06-01T11:18:07.450Z,25.79
2018-06-01T11:20:33.918Z,25.84
2018-06-01T11:23:00.345Z,25.96
2018-06-01T11:25:26.654Z,26.16
2018-06-01T11:27:53.214Z,26.09
2018-06-01T11:30:19.627Z,25.82
2018-06-01T11:32:46.046Z,25.25
2018-06-01T11:35:12.447Z,25.57
2018-06-01T11:37:38.939Z,25.61
2018-06-01T11:40:05.274Z,25.20
2018-06-01T11:42:31.714Z,24.83
2018-06-01T11:44:58.860Z,24.77
2018-06-01T11:47:25.334Z,24.72
2018-06-01T11:49:51.713Z,25.29
2018-06-01T11:52:18.112Z,25.91
2018-06-01T11:54:44.515Z,26.65
2018-06-01T11:57:11.152Z,26.92
2018-06-01T11:59:38.345Z,26.81
2018-06-01T12:02:04.769Z,26.38
2018-06-01T12:04:31.159Z,25.87
2018-06-01T12:06:58.292Z,26.29
2018-06-01T12:09:25.963Z,26.28
2018-06-01T12:11:52.361Z,25.75
2018-06-01T12:14:18.886Z,25.40
2018-06-01T12:16:46.155Z,25.70
2018-06-01T12:19:12.566Z,25.71
2018-06-01T12:21:38.975Z,25.64
2018-06-01T12:24:05.354Z,25.84
2018-06-01T12:26:31.749Z,26.42
2018-06-01T12:28:58.126Z,26.68
2018-06-01T12:31:24.477Z,26.98
2018-06-01T12:33:50.919Z,27.36
2018-06-01T12:36:17.273Z,27.47
2018-06-01T12:38:43.649Z,27.77
2018-06-01T12:41:10.120Z,27.50
2018-06-01T12:43:36.713Z,28.05
2018-06-01T12:46:03.816Z,27.80
2018-06-01T12:48:30.327Z,27.75
2018-06-01T12:50:56.677Z,27.75
2018-06-01T12:53:22.983Z,27.90
2018-06-01T12:55:49.392Z,27.45
2018-06-01T12:58:15.819Z,27.32
2018-06-01T13:00:42.179Z,26.97
2018-06-01T13:03:08.564Z,27.34
2018-06-01T13:05:34.961Z,27.89
2018-06-01T13:08:01.345Z,27.69
2018-06-01T13:10:27.694Z,27.08
2018-06-01T13:12:54.159Z,27.01
2018-06-01T13:15:20.627Z,27.24
2018-06-01T13:17:46.985Z,26.92
2018-06-01T13:20:14.124Z,26.78
2018-06-01T13:22:41.249Z,26.72
2018-06-01T13:25:07.656Z,27.41
2018-06-01T13:27:34.187Z,27.25
2018-06-01T13:30:00.569Z,26.55
2018-06-01T13:32:26.945Z,26.45
2018-06-01T13:34:53.359Z,26.21
2018-06-01T13:37:19.732Z,26.39
2018-06-01T13:39:46.092Z,26.34
2018-06-01T13:42:12.585Z,26.23
2018-06-01T13:44:38.990Z,26.35
2018-06-01T13:47:05.535Z,26.25
2018-06-01T13:49:32.047Z,26.23
2018-06-01T13:51:58.428Z,26.66
2018-06-01T13:54:34.483Z,26.98
2018-06-01T13:57:01.024Z,26.77
2018-06-01T13:59:27.495Z,27.18
2018-06-01T14:01:54.610Z,27.31
2018-06-01T14:04:20.966Z,27.02
2018-06-01T14:06:47.543Z,27.36
2018-06-01T14:09:13.993Z,27.63
2018-06-01T14:11:40.401Z,27.74
2018-06-01T14:14:06.736Z,27.78
2018-06-01T14:16:33.156Z,28.30
2018-06-01T14:18:59.584Z,27.99
2018-06-01T14:21:25.956Z,27.69
2018-06-01T14:23:52.322Z,27.32
2018-06-01T14:26:18.687Z,27.31
2018-06-01T14:28:45.113Z,26.99
2018-06-01T14:31:11.484Z,26.89
2018-06-01T14:33:38.151Z,26.43
2018-06-01T14:36:04.536Z,26.31
2018-06-01T14:38:30.938Z,26.06
2018-06-01T14:40:57.262Z,25.76
2018-06-01T14:43:23.649Z,25.45
2018-06-01T14:45:50.071Z,25.30
2018-06-01T14:48:16.535Z,25.10
2018-06-01T14:50:42.994Z,24.91
2018-06-01T14:53:09.335Z,24.84
2018-06-01T14:55:35.694Z,24.81
2018-06-01T14:58:02.069Z,25.03
2018-06-01T15:00:29.162Z,25.05
2018-06-01T15:02:55.534Z,24.97
2018-06-01T15:05:21.983Z,24.80
2018-06-01T15:07:49.102Z,24.82
2018-06-01T15:10:15.488Z,24.89
2018-06-01T15:12:41.808Z,25.15
2018-06-01T15:15:08.342Z,25.60
2018-06-01T15:17:34.803Z,25.54
2018-06-01T15:20:01.196Z,25.90
2018-06-01T15:22:28.282Z,26.14
2018-06-01T15:24:54.612Z,25.96
2018-06-01T15:27:21.003Z,26.07
2018-06-01T15:29:47.373Z,26.23
2018-06-01T15:32:13.762Z,26.51
2018-06-01T15:34:40.231Z,26.46
2018-06-01T15:37:06.602Z,26.28
2018-06-01T15:39:33.740Z,26.33
2018-06-01T15:42:00.072Z,26.46
2018-06-01T15:44:26.399Z,26.09
2018-06-01T15:46:52.799Z,26.07
2018-06-01T15:49:19.128Z,26.57
2018-06-01T15:51:45.526Z,26.62
2018-06-01T15:54:12.800Z,26.81
2018-06-01T15:56:39.238Z,26.91
2018-06-01T15:59:05.699Z,26.92
2018-06-01T16:01:32.060Z,26.78
2018-06-01T16:03:59.237Z,26.70
2018-06-01T16:06:25.678Z,26.60
2018-06-01T16:08:52.130Z,26.44
2018-06-01T16:11:18.559Z,26.54
2018-06-01T16:13:45.518Z,26.92
2018-06-01T16:16:11.896Z,26.83
2018-06-01T16:18:38.264Z,26.78
2018-06-01T16:21:04.676Z,27.07
2018-06-01T16:23:31.002Z,26.99
2018-06-01T16:25:57.458Z,26.52
2018-06-01T16:28:23.811Z,26.09
2018-06-01T16:30:50.222Z,25.93
2018-06-01T16:33:16.846Z,25.62
2018-06-01T16:35:43.373Z,25.43
2018-06-01T16:38:09.704Z,25.23
2018-06-01T16:40:36.106Z,25.31
2018-06-01T16:43:02.507Z,25.10
2018-06-01T16:45:28.872Z,25.06
2018-06-01T16:47:55.325Z,24.84
2018-06-01T16:50:21.687Z,24.71
2018-06-01T16:52:48.644Z,24.82
2018-06-01T16:55:15.099Z,24.75
2018-06-01T16:57:42.230Z,24.83
2018-06-01T17:00:08.634Z,24.93
2018-06-01T17:02:34.999Z,24.69
2018-06-01T17:05:02.086Z,24.67
2018-06-01T17:07:28.421Z,24.18
2018-06-01T17:09:54.760Z,23.95
2018-06-01T17:12:21.063Z,23.81
2018-06-01T17:14:47.605Z,23.88
2018-06-01T17:17:13.999Z,23.79
2018-06-01T17:19:41.223Z,23.87
2018-06-01T17:22:07.548Z,23.93
2018-06-01T17:24:33.953Z,24.11
2018-06-01T17:27:00.362Z,23.95
2018-06-01T17:29:26.706Z,23.53
2018-06-01T17:31:53.186Z,23.50
2018-06-01T17:34:19.576Z,23.51
2018-06-01T17:36:46.099Z,23.45
2018-06-01T17:39:12.624Z,23.57
2018-06-01T17:41:39.151Z,23.61
2018-06-01T17:44:05.573Z,23.43
2018-06-01T17:46:32.663Z,23.50
2018-06-01T17:48:59.059Z,23.40
2018-06-01T17:51:26.268Z,23.35
2018-06-01T17:53:52.873Z,23.16
2018-06-01T17:56:19.342Z,22.76
2018-06-01T17:58:46.654Z,21.84
2018-06-01T18:01:13.102Z,20.86
2018-06-01T18:03:39.527Z,19.76
2018-06-01T18:06:05.927Z,19.47
2018-06-01T18:08:33.178Z,19.46
2018-06-01T18:11:00.300Z,19.06
2018-06-01T18:13:26.797Z,19.23
2018-06-01T18:15:53.682Z,19.29
2018-06-01T18:18:20.125Z,19.37
2018-06-01T18:20:47.454Z,19.52
2018-06-01T18:23:14.064Z,19.67
2018-06-01T18:25:40.416Z,19.81
2018-06-01T18:28:06.745Z,19.95
2018-06-01T18:30:33.218Z,19.99
2018-06-01T18:33:00.327Z,20.28
2018-06-01T18:35:27.088Z,20.48
2018-06-01T18:37:53.489Z,20.39
2018-06-01T18:40:20.674Z,20.36
2018-06-01T18:42:48.572Z,20.31
2018-06-01T18:45:14.976Z,20.20
2018-06-01T18:47:42.102Z,20.21
2018-06-01T18:50:08.564Z,20.13
2018-06-01T18:52:35.150Z,20.25
2018-06-01T18:55:01.615Z,20.40
2018-06-01T18:57:28.327Z,20.31
2018-06-01T18:59:54.784Z,20.25
2018-06-01T19:02:21.167Z,20.33
2018-06-01T19:04:47.611Z,20.23
2018-06-01T19:07:14.008Z,20.37
2018-06-01T19:09:40.400Z,20.41
2018-06-01T19:12:06.907Z,20.28
2018-06-01T19:14:33.280Z,20.37
2018-06-01T19:16:59.670Z,20.28
2018-06-01T19:19:26.055Z,20.33
2018-06-01T19:21:52.424Z,20.35
2018-06-01T19:24:20.650Z,20.05
2018-06-01T19:26:46.982Z,20.15
2018-06-01T19:29:13.355Z,20.26
2018-06-01T19:31:39.716Z,20.30
2018-06-01T19:34:06.084Z,20.19
2018-06-01T19:36:32.574Z,20.05
2018-06-01T19:38:59.190Z,19.99
2018-06-01T19:41:25.563Z,19.83
2018-06-01T19:43:52.657Z,19.75
2018-06-01T19:46:19.079Z,19.78
2018-06-01T19:48:45.546Z,19.84
2018-06-01T19:51:11.953Z,19.87
2018-06-01T19:53:38.391Z,19.68
2018-06-01T19:56:04.796Z,19.57
2018-06-01T19:58:32.051Z,19.50
2018-06-01T20:00:58.503Z,19.39
2018-06-01T20:03:24.952Z,19.55
2018-06-01T20:05:51.392Z,19.67
2018-06-01T20:08:17.765Z,19.70
2018-06-01T20:10:44.999Z,19.57
2018-06-01T20:13:11.393Z,19.25
2018-06-01T20:15:37.914Z,19.21
2018-06-01T20:18:04.903Z,19.10
2018-06-01T20:20:31.286Z,19.09
2018-06-01T20:22:58.112Z,19.08
2018-06-01T20:25:24.675Z,19.03
2018-06-01T20:27:51.053Z,19.11
2018-06-01T20:30:17.521Z,19.17
2018-06-01T20:32:44.044Z,19.06
2018-06-01T20:35:11.678Z,19.06
2018-06-01T20:37:38.263Z,19.17
2018-06-01T20:40:05.177Z,19.27
2018-06-01T20:42:31.535Z,19.33
2018-06-01T20:44:57.937Z,19.17
2018-06-01T20:47:24.274Z,19.02
2018-06-01T20:49:50.648Z,18.75
2018-06-01T20:52:17.063Z,18.70
2018-06-01T20:54:43.608Z,18.69
2018-06-01T20:57:10.109Z,18.83
2018-06-01T20:59:36.534Z,18.76
2018-06-01T21:02:03.528Z,18.53
2018-06-01T21:04:29.983Z,18.37
2018-06-01T21:06:56.359Z,18.34
2018-06-01T21:09:22.921Z,18.35
2018-06-01T21:11:50.051Z,18.56
2018-06-01T21:14:16.464Z,18.64
2018-06-01T21:16:42.916Z,18.64
2018-06-01T21:19:09.347Z,18.49
2018-06-01T21:21:35.720Z,18.76
2018-06-01T21:24:02.188Z,18.87
2018-06-01T21:26:28.641Z,18.68
2018-06-01T21:28:55.034Z,18.45
2018-06-01T21:31:21.387Z,18.44
2018-06-01T21:33:47.759Z,18.61
2018-06-01T21:36:14.091Z,18.41
2018-06-01T21:38:40.721Z,18.60
2018-06-01T21:41:07.066Z,18.49
2018-06-01T21:43:33.491Z,18.57
2018-06-01T21:45:59.886Z,18.64
2018-06-01T21:48:26.244Z,18.38
2018-06-01T21:50:52.744Z,18.28
2018-06-01T21:53:19.135Z,18.40
2018-06-01T21:55:46.397Z,18.36
2018-06-01T21:58:12.823Z,18.18
2018-06-01T22:00:39.931Z,18.13
2018-06-01T22:03:06.360Z,18.08
2018-06-01T22:05:32.818Z,18.05
2018-06-01T22:07:59.235Z,17.97
2018-06-01T22:10:25.607Z,18.06
2018-06-01T22:12:52.043Z,18.13
2018-06-01T22:15:18.471Z,18.11
2018-06-01T22:17:44.847Z,18.01
2018-06-01T22:20:11.388Z,17.97
2018-06-01T22:22:37.786Z,18.12
2018-06-01T22:25:04.218Z,18.15
2018-06-01T22:27:30.573Z,18.16
2018-06-01T22:29:56.964Z,18.23
2018-06-01T22:32:24.054Z,18.04
2018-06-01T22:34:50.427Z,17.93
2018-06-01T22:37:17.594Z,17.88
2018-06-01T22:39:44.045Z,18.00
2018-06-01T22:42:11.367Z,18.08
2018-06-01T22:44:38.504Z,18.04
2018-06-01T22:47:04.954Z,17.96
2018-06-01T22:49:31.302Z,17.98
2018-06-01T22:51:57.643Z,18.00
2018-06-01T22:54:24.080Z,17.87
2018-06-01T22:56:50.482Z,18.16
2018-06-01T22:59:16.827Z,17.98
2018-06-01T23:01:43.201Z,18.02
2018-06-01T23:04:09.618Z,17.95
2018-06-01T23:06:35.968Z,17.91
2018-06-01T23:09:02.397Z,17.82
2018-06-01T23:11:28.790Z,17.76
2018-06-01T23:13:55.149Z,17.83
2018-06-01T23:16:21.451Z,17.84
2018-06-01T23:18:48.177Z,17.75
2018-06-01T23:21:14.525Z,17.86
2018-06-01T23:23:40.895Z,17.83
2018-06-01T23:26:07.240Z,17.86
2018-06-01T23:28:35.734Z,17.86
2018-06-01T23:31:02.308Z,17.79
2018-06-01T23:33:28.941Z,17.63
2018-06-01T23:35:55.250Z,17.60
2018-06-01T23:38:21.877Z,17.58
2018-06-01T23:40:48.222Z,17.85
2018-06-01T23:43:15.435Z,17.71
2018-06-01T23:45:41.851Z,17.69
2018-06-01T23:48:09.626Z,17.83
2018-06-01T23:50:35.967Z,17.76
2018-06-01T23:53:03.167Z,17.64
2018-06-01T23:55:29.624Z,17.66
2018-06-01T23:57:55.980Z,17.78
